createdAt,value
2022-09-30T00:00:17.986Z,21.90
2022-09-30T00:03:20.207Z,21.90
2022-09-30T00:06:22.507Z,21.90
2022-09-30T00:09:24.508Z,21.90
2022-09-30T00:12:27.334Z,21.90
2022-09-30T00:15:29.035Z,21.90
2022-09-30T00:18:31.268Z,21.90
2022-09-30T00:21:36.786Z,21.90
2022-09-30T00:24:38.580Z,21.90
2022-09-30T00:27:40.294Z,21.90
2022-09-30T00:30:43.042Z,21.80
2022-09-30T00:34:04.950Z,21.80
2022-09-30T00:37:08.605Z,21.80
2022-09-30T00:40:11.551Z,21.80
2022-09-30T00:43:37.739Z,21.80
2022-09-30T00:46:44.651Z,21.80
2022-09-30T00:49:46.751Z,21.80
2022-09-30T00:53:03.448Z,21.80
2022-09-30T00:56:17.097Z,21.80
2022-09-30T00:59:29.280Z,21.80
2022-09-30T01:02:31.090Z,21.80
2022-09-30T01:05:34.586Z,21.80
2022-09-30T01:08:39.243Z,21.80
2022-09-30T01:11:41.566Z,21.80
2022-09-30T01:14:47.022Z,21.70
2022-09-30T01:18:12.627Z,21.70
2022-09-30T01:21:24.105Z,21.70
2022-09-30T01:24:34.766Z,21.70
2022-09-30T01:28:13.220Z,21.70
2022-09-30T01:31:22.378Z,21.70
2022-09-30T01:34:43.063Z,21.70
2022-09-30T01:37:49.581Z,21.70
2022-09-30T01:41:01.454Z,21.70
2022-09-30T01:44:23.670Z,21.60
2022-09-30T01:47:57.275Z,21.70
2022-09-30T01:51:05.154Z,21.70
2022-09-30T01:54:22.186Z,21.70
2022-09-30T01:57:58.157Z,21.60
2022-09-30T02:01:06.106Z,21.60
2022-09-30T02:04:16.944Z,21.60
2022-09-30T02:07:30.384Z,21.60
2022-09-30T02:10:37.879Z,21.60
2022-09-30T02:13:49.789Z,21.60
2022-09-30T02:16:55.763Z,21.60
2022-09-30T02:20:01.579Z,21.60
2022-09-30T02:23:36.552Z,21.60
2022-09-30T02:26:41.658Z,21.60
2022-09-30T02:29:49.748Z,21.60
2022-09-30T02:32:56.885Z,21.60
2022-09-30T02:36:23.929Z,21.60
2022-09-30T02:39:37.486Z,21.60
2022-09-30T02:42:41.472Z,21.60
2022-09-30T02:46:08.745Z,21.60
2022-09-30T02:49:28.415Z,21.60
2022-09-30T02:53:07.131Z,21.60
2022-09-30T02:56:35.135Z,21.50
2022-09-30T02:59:36.949Z,21.50
2022-09-30T03:02:38.665Z,21.50
2022-09-30T03:05:40.479Z,21.50
2022-09-30T03:08:42.705Z,21.50
2022-09-30T03:11:45.367Z,21.50
2022-09-30T03:15:08.899Z,21.40
2022-09-30T03:18:37.507Z,21.50
2022-09-30T03:21:55.334Z,21.50
2022-09-30T03:25:12.102Z,21.50
2022-09-30T03:28:24.027Z,21.40
2022-09-30T03:31:50.808Z,21.50
2022-09-30T03:35:03.245Z,21.40
2022-09-30T03:38:20.260Z,21.50
2022-09-30T03:41:30.659Z,21.40
2022-09-30T03:44:42.550Z,21.50
2022-09-30T03:47:52.028Z,21.40
2022-09-30T03:50:54.865Z,21.40
2022-09-30T03:53:58.223Z,21.40
2022-09-30T03:57:03.335Z,21.40
2022-09-30T04:00:07.003Z,21.40
2022-09-30T04:03:08.761Z,21.40
2022-09-30T04:06:13.673Z,21.40
2022-09-30T04:09:15.631Z,21.40
2022-09-30T04:12:17.832Z,21.40
2022-09-30T04:15:19.567Z,21.40
2022-09-30T04:18:21.569Z,21.40
2022-09-30T04:21:23.479Z,21.40
2022-09-30T04:24:25.331Z,21.40
2022-09-30T04:27:27.379Z,21.40
2022-09-30T04:30:33.282Z,21.40
2022-09-30T04:33:35.443Z,21.40
2022-09-30T04:36:37.598Z,21.40
2022-09-30T04:39:39.479Z,21.40
2022-09-30T04:42:42.881Z,21.40
2022-09-30T04:45:45.749Z,21.40
2022-09-30T04:48:49.335Z,21.40
2022-09-30T04:51:51.054Z,21.40
2022-09-30T04:54:54.059Z,21.40
2022-09-30T04:57:55.942Z,21.30
2022-09-30T05:01:30.153Z,21.30
2022-09-30T05:04:33.345Z,21.20
2022-09-30T05:07:35.070Z,21.30
2022-09-30T05:10:37.130Z,21.30
2022-09-30T05:13:40.558Z,21.30
2022-09-30T05:16:42.307Z,21.30
2022-09-30T05:19:44.005Z,21.30
2022-09-30T05:22:45.909Z,21.30
2022-09-30T05:25:47.887Z,21.30
2022-09-30T05:28:49.653Z,21.30
2022-09-30T05:31:51.516Z,21.30
2022-09-30T05:34:55.258Z,21.30
2022-09-30T05:37:57.067Z,21.30
2022-09-30T05:40:58.949Z,21.30
2022-09-30T05:44:01.058Z,21.30
2022-09-30T05:47:02.935Z,21.30
2022-09-30T05:50:05.345Z,21.20
2022-09-30T05:53:07.155Z,21.20
2022-09-30T05:56:10.163Z,21.20
2022-09-30T05:59:12.023Z,21.20
2022-09-30T06:02:14.122Z,21.20
2022-09-30T06:05:16.051Z,21.10
2022-09-30T06:08:17.764Z,21.10
2022-09-30T06:11:21.648Z,21.10
2022-09-30T06:14:23.850Z,21.00
2022-09-30T06:17:25.653Z,21.00
2022-09-30T06:20:27.437Z,21.00
2022-09-30T06:23:30.810Z,21.00
2022-09-30T06:26:32.620Z,20.90
2022-09-30T06:29:34.377Z,20.70
2022-09-30T06:32:36.136Z,20.40
2022-09-30T06:35:37.999Z,20.40
2022-09-30T06:38:39.834Z,20.50
2022-09-30T06:41:43.533Z,20.60
2022-09-30T06:44:52.769Z,20.60
2022-09-30T06:48:00.849Z,20.70
2022-09-30T06:51:03.035Z,20.80
2022-09-30T06:54:04.762Z,20.80
2022-09-30T06:57:06.496Z,20.90
2022-09-30T07:00:08.900Z,20.90
2022-09-30T07:03:25.766Z,20.90
2022-09-30T07:06:27.499Z,20.90
2022-09-30T07:09:29.263Z,20.90
2022-09-30T07:12:31.244Z,20.90
2022-09-30T07:15:32.941Z,21.00
2022-09-30T07:18:34.710Z,21.00
2022-09-30T07:21:36.519Z,21.00
2022-09-30T07:24:38.205Z,21.00
2022-09-30T07:27:40.077Z,21.10
2022-09-30T07:30:44.928Z,21.10
2022-09-30T07:33:47.972Z,21.20
2022-09-30T07:36:49.884Z,21.10
2022-09-30T07:39:52.142Z,21.20
2022-09-30T07:42:54.148Z,21.20
2022-09-30T07:45:56.148Z,21.10
2022-09-30T07:49:01.991Z,21.10
2022-09-30T07:52:04.751Z,21.10
2022-09-30T07:55:06.982Z,21.10
2022-09-30T07:58:10.920Z,21.10
2022-09-30T08:01:13.465Z,21.20
2022-09-30T08:04:16.479Z,21.20
2022-09-30T08:07:18.807Z,21.30
2022-09-30T08:13:27.638Z,21.40
2022-09-30T08:16:29.874Z,21.40
2022-09-30T08:19:33.539Z,21.40
2022-09-30T08:22:35.404Z,21.30
2022-09-30T08:25:37.104Z,21.30
2022-09-30T08:28:39.601Z,21.30
2022-09-30T08:31:42.029Z,21.30
2022-09-30T08:34:43.753Z,21.30
2022-09-30T08:37:45.616Z,21.30
2022-09-30T08:41:13.768Z,21.30
2022-09-30T08:44:37.036Z,21.30
2022-09-30T08:48:10.493Z,21.30
2022-09-30T08:51:31.254Z,21.30
2022-09-30T08:54:39.312Z,21.30
2022-09-30T08:57:47.451Z,21.30
2022-09-30T09:00:51.737Z,21.30
2022-09-30T09:03:54.522Z,21.40
2022-09-30T09:07:12.221Z,21.40
2022-09-30T09:10:28.039Z,21.40
2022-09-30T09:13:48.472Z,21.40
2022-09-30T09:17:06.591Z,21.40
2022-09-30T09:20:17.517Z,21.50
2022-09-30T09:23:19.757Z,21.50
2022-09-30T09:26:22.326Z,21.60
2022-09-30T09:29:36.001Z,21.60
2022-09-30T09:32:38.692Z,21.60
2022-09-30T09:36:09.963Z,21.60
2022-09-30T09:39:23.705Z,21.60
2022-09-30T09:42:31.641Z,21.60
2022-09-30T09:45:43.579Z,21.70
2022-09-30T09:48:45.790Z,21.70
2022-09-30T09:52:09.336Z,21.80
2022-09-30T09:55:13.129Z,21.80
2022-09-30T09:58:17.242Z,21.90
2022-09-30T10:01:32.836Z,21.90
2022-09-30T10:04:35.387Z,21.90
2022-09-30T10:07:37.249Z,21.90
2022-09-30T10:10:44.592Z,22.00
2022-09-30T10:13:46.827Z,22.00
2022-09-30T10:16:49.055Z,22.10
2022-09-30T10:19:53.881Z,22.10
2022-09-30T10:23:20.541Z,22.10
2022-09-30T10:26:24.840Z,22.10
2022-09-30T10:29:36.029Z,22.10
2022-09-30T10:32:37.808Z,22.10
2022-09-30T10:36:02.363Z,22.20
2022-09-30T10:39:08.442Z,22.20
2022-09-30T10:42:28.473Z,22.20
2022-09-30T10:45:36.534Z,22.10
2022-09-30T10:48:40.182Z,22.10
2022-09-30T10:51:46.095Z,22.00
2022-09-30T10:54:57.674Z,22.00
2022-09-30T10:58:37.421Z,22.00
2022-09-30T11:01:46.549Z,22.10
2022-09-30T11:04:58.833Z,22.10
2022-09-30T11:08:06.857Z,22.10
2022-09-30T11:11:18.100Z,22.00
2022-09-30T11:14:35.747Z,22.10
2022-09-30T11:17:59.171Z,22.10
2022-09-30T11:21:07.025Z,22.10
2022-09-30T11:24:20.630Z,22.20
2022-09-30T11:27:56.611Z,22.20
2022-09-30T11:31:22.247Z,22.20
2022-09-30T11:34:56.017Z,22.20
2022-09-30T11:38:57.992Z,22.20
2022-09-30T11:42:20.343Z,22.20
2022-09-30T11:45:38.599Z,22.20
2022-09-30T11:48:59.248Z,22.20
2022-09-30T11:52:20.715Z,22.20
2022-09-30T11:55:51.529Z,22.20
2022-09-30T11:58:59.114Z,22.20
2022-09-30T12:02:02.910Z,22.20
2022-09-30T12:05:12.950Z,22.20
2022-09-30T12:08:24.385Z,22.20
2022-09-30T12:11:37.653Z,22.20
2022-09-30T12:14:48.316Z,22.20
2022-09-30T12:18:01.949Z,22.20
2022-09-30T12:21:29.464Z,22.20
2022-09-30T12:24:40.440Z,22.20
2022-09-30T12:28:27.120Z,22.20
2022-09-30T12:31:44.946Z,22.20
2022-09-30T12:35:15.739Z,22.20
2022-09-30T12:38:38.425Z,22.20
2022-09-30T12:41:54.360Z,22.20
2022-09-30T12:45:40.524Z,22.20
2022-09-30T12:48:48.259Z,22.20
2022-09-30T12:51:54.670Z,22.20
2022-09-30T12:55:01.337Z,22.20
2022-09-30T12:58:05.067Z,22.20
2022-09-30T13:01:29.512Z,22.20
2022-09-30T13:04:37.679Z,22.10
2022-09-30T13:07:59.407Z,22.10
2022-09-30T13:11:06.041Z,22.10
2022-09-30T13:14:45.303Z,22.10
2022-09-30T13:17:46.986Z,22.10
2022-09-30T13:21:10.673Z,22.10
2022-09-30T13:24:12.383Z,22.10
2022-09-30T13:27:15.398Z,22.10
2022-09-30T13:30:17.119Z,22.10
2022-09-30T13:33:42.749Z,22.10
2022-09-30T13:36:44.704Z,22.10
2022-09-30T13:39:52.269Z,22.10
2022-09-30T13:42:55.361Z,22.10
2022-09-30T13:45:58.893Z,22.10
2022-09-30T13:49:12.225Z,22.10
2022-09-30T13:52:28.098Z,22.10
2022-09-30T13:55:53.607Z,22.10
2022-09-30T13:59:14.358Z,22.10
2022-09-30T14:02:22.307Z,22.10
2022-09-30T14:05:53.491Z,22.10
2022-09-30T14:09:13.266Z,22.00
2022-09-30T14:12:45.510Z,22.10
2022-09-30T14:16:13.172Z,22.00
2022-09-30T14:19:49.968Z,22.10
2022-09-30T14:22:51.969Z,22.00
2022-09-30T14:26:10.268Z,22.00
2022-09-30T14:29:30.091Z,22.00
2022-09-30T14:32:54.592Z,22.00
2022-09-30T14:36:00.031Z,22.00
2022-09-30T14:39:02.884Z,22.00
2022-09-30T14:42:04.825Z,21.90
2022-09-30T14:45:07.999Z,21.90
2022-09-30T14:48:23.758Z,21.90
2022-09-30T14:51:27.413Z,21.90
2022-09-30T14:54:31.215Z,22.00
2022-09-30T14:57:35.007Z,21.90
2022-09-30T15:00:37.869Z,21.90
2022-09-30T15:03:42.849Z,21.90
2022-09-30T15:06:48.503Z,21.90
2022-09-30T15:09:50.807Z,21.90
2022-09-30T15:12:53.828Z,21.90
2022-09-30T15:15:55.700Z,21.90
2022-09-30T15:18:57.919Z,21.90
2022-09-30T15:22:04.786Z,21.90
2022-09-30T15:25:09.219Z,21.90
2022-09-30T15:28:12.214Z,21.80
2022-09-30T15:31:31.715Z,21.90
2022-09-30T15:34:34.118Z,21.80
2022-09-30T15:37:35.969Z,21.80
2022-09-30T15:40:49.451Z,21.80
2022-09-30T15:43:52.836Z,21.80
2022-09-30T15:47:09.499Z,21.80
2022-09-30T15:50:48.808Z,21.80
2022-09-30T15:53:51.447Z,21.80
2022-09-30T15:56:53.370Z,21.80
2022-09-30T16:00:02.419Z,21.80
2022-09-30T16:03:18.607Z,21.70
2022-09-30T16:06:34.996Z,21.70
2022-09-30T16:09:41.598Z,21.70
2022-09-30T16:12:49.254Z,21.80
2022-09-30T16:15:52.603Z,21.70
2022-09-30T16:18:56.399Z,21.70
2022-09-30T16:21:58.783Z,21.70
2022-09-30T16:25:11.700Z,21.80
2022-09-30T16:28:15.132Z,21.70
2022-09-30T16:31:18.242Z,21.70
2022-09-30T16:34:23.997Z,21.70
2022-09-30T16:37:26.322Z,21.70
2022-09-30T16:40:29.382Z,21.70
2022-09-30T16:43:31.611Z,21.70
2022-09-30T16:46:33.986Z,21.70
2022-09-30T16:49:35.942Z,21.70
2022-09-30T16:52:37.732Z,21.70
2022-09-30T16:55:40.241Z,21.70
2022-09-30T16:58:42.918Z,21.70
2022-09-30T17:01:44.979Z,21.70
2022-09-30T17:04:47.161Z,21.70
2022-09-30T17:07:59.791Z,21.70
2022-09-30T17:11:01.623Z,21.70
2022-09-30T17:14:05.335Z,21.70
2022-09-30T17:17:12.389Z,21.70
2022-09-30T17:20:15.370Z,21.70
2022-09-30T17:23:17.168Z,21.70
2022-09-30T17:26:18.952Z,21.70
2022-09-30T17:29:31.895Z,21.70
2022-09-30T17:32:37.606Z,21.70
2022-09-30T17:35:40.472Z,21.60
2022-09-30T17:38:42.274Z,21.70
2022-09-30T17:42:02.571Z,21.60
2022-09-30T17:45:04.942Z,21.60
2022-09-30T17:48:07.796Z,21.60
2022-09-30T17:51:10.431Z,21.60
2022-09-30T17:54:12.144Z,21.60
2022-09-30T17:57:13.853Z,21.60
2022-09-30T18:00:16.022Z,21.60
2022-09-30T18:03:18.887Z,21.60
2022-09-30T18:06:20.987Z,21.70
2022-09-30T18:09:23.315Z,21.60
2022-09-30T18:12:25.065Z,21.60
2022-09-30T18:15:27.088Z,21.60
2022-09-30T18:18:29.344Z,21.60
2022-09-30T18:21:33.093Z,21.60
2022-09-30T18:24:53.553Z,21.60
2022-09-30T18:27:59.296Z,21.60
2022-09-30T18:31:08.355Z,21.60
2022-09-30T18:34:13.221Z,21.60
2022-09-30T18:37:15.018Z,21.60
2022-09-30T18:40:18.405Z,21.50
2022-09-30T18:43:23.663Z,21.50
2022-09-30T18:46:27.578Z,21.50
2022-09-30T18:49:29.273Z,21.50
2022-09-30T18:52:30.961Z,21.50
2022-09-30T18:55:32.662Z,21.50
2022-09-30T18:58:34.418Z,21.50
2022-09-30T19:01:37.026Z,21.50
2022-09-30T19:04:39.357Z,21.50
2022-09-30T19:07:41.353Z,21.50
2022-09-30T19:10:43.335Z,21.50
2022-09-30T19:13:47.957Z,21.50
2022-09-30T19:16:51.755Z,21.50
2022-09-30T19:19:53.518Z,21.50
2022-09-30T19:22:55.269Z,21.50
2022-09-30T19:25:58.575Z,21.50
2022-09-30T19:29:00.410Z,21.50
2022-09-30T19:32:02.434Z,21.50
2022-09-30T19:35:07.001Z,21.50
2022-09-30T19:38:09.235Z,21.50
2022-09-30T19:41:12.677Z,21.50
2022-09-30T19:44:18.707Z,21.50
2022-09-30T19:47:20.411Z,21.40
2022-09-30T19:50:22.176Z,21.50
2022-09-30T19:53:30.477Z,21.40
2022-09-30T19:56:33.530Z,21.50
2022-09-30T19:59:35.247Z,21.40
2022-09-30T20:02:37.181Z,21.40
2022-09-30T20:05:38.910Z,21.40
2022-09-30T20:08:42.871Z,21.40
2022-09-30T20:11:45.272Z,21.40
2022-09-30T20:15:05.469Z,21.40
2022-09-30T20:18:07.244Z,21.40
2022-09-30T20:21:11.014Z,21.40
2022-09-30T20:24:15.867Z,21.40
2022-09-30T20:27:17.615Z,21.40
2022-09-30T20:30:20.210Z,21.40
2022-09-30T20:33:25.118Z,21.40
2022-09-30T20:36:28.471Z,21.40
2022-09-30T20:39:30.173Z,21.40
2022-09-30T20:42:32.767Z,21.40
2022-09-30T20:45:35.578Z,21.40
2022-09-30T20:48:38.882Z,21.40
2022-09-30T20:51:40.600Z,21.40
2022-09-30T20:54:42.314Z,21.40
2022-09-30T20:57:45.806Z,21.40
2022-09-30T21:00:47.558Z,21.30
2022-09-30T21:03:51.366Z,21.40
2022-09-30T21:06:53.118Z,21.40
2022-09-30T21:09:54.849Z,21.40
2022-09-30T21:12:58.207Z,21.30
2022-09-30T21:16:01.485Z,21.40
2022-09-30T21:19:03.793Z,21.30
2022-09-30T21:22:05.501Z,21.30
2022-09-30T21:25:07.661Z,21.40
2022-09-30T21:28:09.534Z,21.30
2022-09-30T21:31:22.589Z,21.30
2022-09-30T21:34:24.619Z,21.30
2022-09-30T21:37:26.609Z,21.30
2022-09-30T21:40:28.866Z,21.30
2022-09-30T21:43:35.294Z,21.30
2022-09-30T21:46:37.498Z,21.30
2022-09-30T21:49:39.183Z,21.30
2022-09-30T21:52:40.944Z,21.30
2022-09-30T21:55:45.129Z,21.30
2022-09-30T21:58:48.101Z,21.30
2022-09-30T22:01:50.237Z,21.30
2022-09-30T22:04:52.030Z,21.30
2022-09-30T22:07:53.746Z,21.30
2022-09-30T22:10:55.463Z,21.30
2022-09-30T22:13:58.232Z,21.20
2022-09-30T22:16:59.970Z,21.30
2022-09-30T22:20:01.848Z,21.20
2022-09-30T22:23:03.589Z,21.20
2022-09-30T22:26:17.072Z,21.20
2022-09-30T22:29:18.846Z,21.20
2022-09-30T22:32:20.572Z,21.20
2022-09-30T22:35:40.802Z,21.20
2022-09-30T22:38:42.589Z,21.20
2022-09-30T22:41:44.964Z,21.20
2022-09-30T22:44:47.979Z,21.20
2022-09-30T22:47:49.714Z,21.20
2022-09-30T22:50:51.497Z,21.20
2022-09-30T22:53:53.472Z,21.20
2022-09-30T22:56:55.759Z,21.10
2022-09-30T22:59:59.753Z,21.10
2022-09-30T23:03:02.713Z,21.10
2022-09-30T23:06:07.700Z,21.10
2022-09-30T23:09:09.724Z,21.10
2022-09-30T23:12:14.207Z,21.10
2022-09-30T23:15:16.024Z,21.10
2022-09-30T23:18:17.949Z,21.10
2022-09-30T23:21:19.855Z,21.10
2022-09-30T23:24:21.654Z,21.10
2022-09-30T23:27:23.471Z,21.10
2022-09-30T23:30:26.742Z,21.10
2022-09-30T23:33:29.997Z,21.00
2022-09-30T23:36:35.552Z,21.10
2022-09-30T23:39:37.361Z,21.10
2022-09-30T23:42:39.100Z,21.10
2022-09-30T23:45:41.372Z,21.10
2022-09-30T23:48:44.732Z,21.10
2022-09-30T23:51:46.828Z,21.10
2022-09-30T23:54:48.760Z,21.00
2022-09-30T23:57:50.472Z,21.00
